Potters Bar, United Kingdom
Current Conditions -  °F | °C
As of 6:50 AM on Sunday 23 Nov 2014 (Local Time) from EGWU Reporting Station
Light Rain Light Rain  
Wind Chill: 10°   Ceiling: 2800
Heat Index: 10°   Visibility: 6mi
Dew Point:   Wind: 9mph
Humidity: 87%   Direction: 360°N
Pressure: 29.97"   Gusts: NA
Location:  51.69°N, 0.18°W
Report Text: EGWU 230650Z 36008KT 9999 -RA FEW008 BKN028 10/08 Q1015 BLU TEMPO 7000 RA SCT007 GRN
Loading
Personal Weather Stations






























Interactive Weather Map New forecast layout! Learn more

10-Day Weather Forecast

Advertisements
Track Severe Weather on mobile